Time;durP1;ratioP1;P1;durP2;ratioP2;P2;SDS_P1;SDS_P2;PMS_P1;PMS_P2;Temp;Humidity;BMP_temperature;BMP_pressure;BME280_temperature;BME280_humidity;BME280_pressure;Samples;Min_cycle;Max_cycle;Signal;HPM_P1;HPM_P2
2022/10/26 00:00:13;;;;;;;6.28;1.23;;;16.50;99.90;;;;;;4099927;29;20277;-91
2022/10/26 00:02:14;;;;;;;10.23;1.40;;;16.50;99.90;;;;;;4084138;29;20607;-94
2022/10/26 00:04:15;;;;;;;5.75;1.20;;;16.40;99.90;;;;;;4084333;28;20172;-93
2022/10/26 00:06:20;;;;;;;8.20;1.30;;;16.50;99.90;;;;;;4084303;29;20282;-93
2022/10/26 00:08:21;;;;;;;9.65;1.10;;;16.50;99.90;;;;;;4084205;29;20168;-93
2022/10/26 00:10:22;;;;;;;6.90;1.27;;;16.50;99.90;;;;;;4100104;29;20540;-92
2022/10/26 00:12:23;;;;;;;9.13;1.60;;;16.60;99.90;;;;;;4084166;29;20211;-93
2022/10/26 00:14:24;;;;;;;9.40;1.38;;;16.50;99.90;;;;;;4083806;28;20215;-93
2022/10/26 00:16:26;;;;;;;6.72;1.50;;;16.40;99.90;;;;;;4084070;29;20179;-93
2022/10/26 00:18:27;;;;;;;7.78;1.30;;;16.20;99.90;;;;;;4084052;29;20176;-94
2022/10/26 00:20:28;;;;;;;8.63;1.00;;;16.10;99.90;;;;;;4099921;29;20258;-91
2022/10/26 00:22:28;;;;;;;8.90;1.50;;;16.10;99.90;;;;;;4083964;29;20202;-92
2022/10/26 00:24:29;;;;;;;11.10;1.50;;;16.10;99.90;;;;;;4099860;29;20265;-92
2022/10/26 00:26:30;;;;;;;4.90;1.33;;;16.00;99.90;;;;;;4083919;29;20187;-91
2022/10/26 00:28:31;;;;;;;10.30;1.35;;;16.10;99.90;;;;;;4099747;29;20194;-91
2022/10/26 00:30:38;;;;;;;11.32;1.35;;;16.20;99.90;;;;;;4099765;28;20266;-95
2022/10/26 00:32:39;;;;;;;8.82;1.38;;;16.30;99.90;;;;;;4085328;29;20203;-92
2022/10/26 00:34:40;;;;;;;7.97;1.73;;;16.40;99.90;;;;;;4102485;29;20575;-93
2022/10/26 00:36:41;;;;;;;3.08;1.10;;;16.40;99.90;;;;;;4086779;29;20178;-94
2022/10/26 00:38:44;;;;;;;6.72;1.20;;;16.40;99.90;;;;;;4086809;29;20184;-92
2022/10/26 00:40:46;;;;;;;9.45;1.50;;;16.50;99.90;;;;;;4086744;29;20524;-93
2022/10/26 00:42:46;;;;;;;6.38;1.27;;;16.40;99.90;;;;;;4086745;29;20218;-91
2022/10/26 00:44:47;;;;;;;7.82;1.20;;;16.40;99.90;;;;;;4086692;29;20184;-91
2022/10/26 00:46:48;;;;;;;8.50;1.58;;;16.30;99.90;;;;;;4102764;28;20238;-91
2022/10/26 00:48:55;;;;;;;6.90;1.30;;;16.30;99.90;;;;;;4086608;29;20171;-92
2022/10/26 00:50:59;;;;;;;8.50;1.40;;;16.40;99.90;;;;;;4086643;29;20175;-94
2022/10/26 00:53:02;;;;;;;8.32;1.30;;;16.50;99.90;;;;;;4086617;29;20176;-94
2022/10/26 00:55:05;;;;;;;5.53;1.15;;;16.40;99.90;;;;;;4086784;29;20259;-91
2022/10/26 00:57:06;;;;;;;10.38;1.77;;;16.50;99.90;;;;;;4086667;29;20184;-92
2022/10/26 00:59:10;;;;;;;6.25;1.45;;;16.50;99.90;;;;;;4102578;28;20179;-93
2022/10/26 01:01:10;;;;;;;7.55;1.25;;;16.40;99.90;;;;;;4086653;29;20207;-92
2022/10/26 01:03:11;;;;;;;15.65;2.22;;;16.40;99.90;;;;;;4102447;29;20209;-95
2022/10/26 01:05:14;;;;;;;10.55;1.50;;;16.40;99.90;;;;;;4086713;29;20576;-94
2022/10/26 01:07:15;;;;;;;7.88;1.42;;;16.50;99.90;;;;;;4102282;28;20241;-90
2022/10/26 01:09:17;;;;;;;7.47;1.40;;;16.60;99.90;;;;;;4086472;28;20195;-92
2022/10/26 01:11:19;;;;;;;6.20;1.33;;;16.40;99.90;;;;;;4086398;28;20200;-93
2022/10/26 01:13:20;;;;;;;7.03;1.25;;;16.40;99.90;;;;;;4102367;29;20182;-92
2022/10/26 01:15:29;;;;;;;6.78;1.17;;;16.40;99.90;;;;;;4102385;28;20331;-91
2022/10/26 01:17:49;;;;;;;7.80;1.27;;;16.30;99.90;;;;;;4086481;28;20179;-93
2022/10/26 01:20:09;;;;;;;5.35;1.30;;;16.40;99.90;;;;;;4086429;28;20193;-93
2022/10/26 01:22:16;;;;;;;8.13;1.60;;;16.30;99.90;;;;;;4086256;28;20617;-93
2022/10/26 01:24:46;;;;;;;6.07;1.33;;;16.30;99.90;;;;;;4086291;28;20175;-91
2022/10/26 01:27:30;;;;;;;6.60;1.60;;;16.20;99.90;;;;;;4102089;28;20226;-91
2022/10/26 01:29:37;;;;;;;8.52;1.30;;;16.10;99.90;;;;;;4054395;29;20263;-91
2022/10/26 01:31:53;;;;;;;9.10;1.48;;;16.00;99.90;;;;;;4073144;29;20207;-91
2022/10/26 01:34:34;;;;;;;7.28;1.58;;;16.10;99.90;;;;;;4086266;28;20222;-92
2022/10/26 01:36:49;;;;;;;8.27;1.52;;;16.20;99.90;;;;;;4083859;29;20192;-92
2022/10/26 01:39:13;;;;;;;8.30;1.42;;;16.20;99.90;;;;;;4085934;28;20180;-91
2022/10/26 01:41:27;;;;;;;8.40;1.95;;;16.20;99.90;;;;;;4085920;28;20191;-91
2022/10/26 01:43:32;;;;;;;4.90;1.30;;;16.20;99.90;;;;;;4085576;28;20275;-94
2022/10/26 01:45:35;;;;;;;7.43;1.65;;;16.20;99.90;;;;;;4085660;28;20190;-93
2022/10/26 01:47:38;;;;;;;5.78;1.48;;;16.20;99.90;;;;;;4086126;28;20193;-92
2022/10/26 01:49:43;;;;;;;8.88;1.40;;;16.20;99.90;;;;;;4085884;28;20179;-91
2022/10/26 01:51:46;;;;;;;8.25;1.63;;;16.20;99.90;;;;;;4085887;28;20198;-92
2022/10/26 01:53:47;;;;;;;7.45;1.60;;;16.30;99.90;;;;;;4086166;28;20215;-93
2022/10/26 01:55:52;;;;;;;12.43;1.88;;;16.30;99.90;;;;;;4105521;29;20175;-91
2022/10/26 01:58:02;;;;;;;6.45;1.55;;;16.20;99.90;;;;;;4091731;28;20172;-93
2022/10/26 02:00:10;;;;;;;7.63;1.30;;;16.30;99.90;;;;;;4090461;28;20186;-93
2022/10/26 02:02:35;;;;;;;8.95;1.55;;;16.30;99.90;;;;;;4086241;28;20237;-92
2022/10/26 02:04:38;;;;;;;7.25;1.60;;;16.30;99.90;;;;;;4088843;28;20176;-92
2022/10/26 02:06:49;;;;;;;8.85;1.50;;;16.20;99.90;;;;;;4109950;28;20190;-93
2022/10/26 02:08:55;;;;;;;8.93;1.35;;;16.30;99.90;;;;;;4092690;28;20169;-91
2022/10/26 02:11:12;;;;;;;10.52;1.27;;;16.30;99.90;;;;;;4093869;28;20221;-92
2022/10/26 02:13:25;;;;;;;5.63;1.40;;;16.40;99.90;;;;;;4092129;28;20211;-94
2022/10/26 02:15:37;;;;;;;6.75;1.48;;;16.40;99.90;;;;;;4092499;28;20199;-91
2022/10/26 02:17:57;;;;;;;6.05;1.63;;;16.60;99.90;;;;;;4091756;28;20179;-92
2022/10/26 02:20:04;;;;;;;9.13;1.80;;;16.50;99.90;;;;;;4104070;28;20326;-93
2022/10/26 02:22:20;;;;;;;7.88;1.50;;;16.50;99.90;;;;;;4085383;28;20195;-92
2022/10/26 02:24:22;;;;;;;9.77;1.70;;;16.60;99.90;;;;;;4085628;28;20183;-92
2022/10/26 02:26:27;;;;;;;8.77;1.90;;;16.70;99.90;;;;;;4085975;29;20180;-91
2022/10/26 02:28:35;;;;;;;9.10;1.52;;;16.60;99.90;;;;;;4085526;28;20689;-94
2022/10/26 02:30:41;;;;;;;9.15;1.50;;;16.70;99.90;;;;;;4085320;28;20182;-92
2022/10/26 02:32:47;;;;;;;4.95;1.40;;;16.70;99.90;;;;;;4085096;28;20675;-93
2022/10/26 02:34:49;;;;;;;10.02;1.48;;;16.70;99.90;;;;;;4085205;28;20278;-93
2022/10/26 02:36:53;;;;;;;6.55;1.45;;;16.90;99.90;;;;;;4101250;28;20170;-92
2022/10/26 02:38:57;;;;;;;6.35;1.27;;;16.70;99.90;;;;;;4085730;28;20183;-93
2022/10/26 02:41:00;;;;;;;5.95;1.67;;;16.60;99.90;;;;;;4101455;28;20238;-94
2022/10/26 02:43:11;;;;;;;5.35;1.65;;;16.60;99.90;;;;;;4085117;28;20180;-91
2022/10/26 02:45:19;;;;;;;8.05;1.70;;;16.70;99.90;;;;;;4100962;28;20179;-91
2022/10/26 02:47:21;;;;;;;7.95;1.67;;;17.00;99.90;;;;;;4084969;28;20174;-93
2022/10/26 02:49:22;;;;;;;9.60;1.73;;;17.00;99.90;;;;;;4085192;29;20175;-95
2022/10/26 02:51:38;;;;;;;9.73;1.85;;;16.80;99.90;;;;;;4101219;28;20190;-91
2022/10/26 02:53:52;;;;;;;7.95;1.85;;;16.90;99.90;;;;;;4085271;28;20195;-91
2022/10/26 02:55:53;;;;;;;9.68;1.70;;;16.70;99.90;;;;;;4084686;28;20541;-91
2022/10/26 02:57:58;;;;;;;4.95;1.60;;;16.70;99.90;;;;;;4084832;29;20187;-92
2022/10/26 03:00:00;;;;;;;5.75;1.38;;;16.70;99.90;;;;;;4084899;28;20696;-91
2022/10/26 03:02:02;;;;;;;10.45;1.80;;;16.60;99.90;;;;;;4084760;28;20203;-91
2022/10/26 03:04:03;;;;;;;6.38;1.67;;;16.70;99.90;;;;;;4084838;29;20179;-93
2022/10/26 03:06:04;;;;;;;5.53;1.73;;;16.70;99.90;;;;;;4100526;28;20187;-92
2022/10/26 03:08:05;;;;;;;5.70;1.58;;;16.70;99.90;;;;;;4100514;28;20174;-92
2022/10/26 03:10:06;;;;;;;5.97;1.63;;;16.70;99.90;;;;;;4084754;29;20187;-95
2022/10/26 03:12:07;;;;;;;6.95;2.13;;;16.60;99.90;;;;;;4100419;29;20250;-94
2022/10/26 03:14:08;;;;;;;13.98;1.92;;;16.70;99.90;;;;;;4100197;28;20210;-94
2022/10/26 03:16:09;;;;;;;8.35;1.45;;;16.60;99.90;;;;;;4084624;29;20211;-93
2022/10/26 03:18:09;;;;;;;9.23;1.85;;;16.70;99.90;;;;;;4084633;28;20168;-92
2022/10/26 03:20:10;;;;;;;5.13;1.48;;;16.60;99.90;;;;;;4084748;29;20680;-91
2022/10/26 03:22:11;;;;;;;6.30;1.65;;;16.50;99.90;;;;;;4084529;29;20199;-91
2022/10/26 03:24:12;;;;;;;7.95;2.00;;;16.50;99.90;;;;;;4084628;29;20163;-93
2022/10/26 03:26:12;;;;;;;4.25;1.40;;;16.50;99.90;;;;;;4084317;29;20649;-95
2022/10/26 03:28:13;;;;;;;7.75;1.70;;;16.40;99.90;;;;;;4084279;29;20176;-93
2022/10/26 03:30:14;;;;;;;7.72;1.60;;;16.50;99.90;;;;;;4100226;29;20196;-94
2022/10/26 03:32:15;;;;;;;8.98;2.25;;;16.60;99.90;;;;;;4084501;29;20751;-91
2022/10/26 03:34:15;;;;;;;10.55;1.80;;;16.70;99.90;;;;;;4084352;29;20203;-91
2022/10/26 03:36:16;;;;;;;5.38;1.83;;;16.40;99.90;;;;;;4084634;29;20560;-93
2022/10/26 03:38:17;;;;;;;9.43;1.67;;;16.30;99.90;;;;;;4084471;29;20210;-91
2022/10/26 03:40:18;;;;;;;5.65;1.40;;;16.20;99.90;;;;;;4100312;29;20183;-92
2022/10/26 03:42:19;;;;;;;6.97;1.80;;;16.20;99.90;;;;;;4100372;29;20190;-92
2022/10/26 03:44:19;;;;;;;11.10;1.60;;;16.20;99.90;;;;;;4084560;29;20231;-92
2022/10/26 03:46:20;;;;;;;9.23;1.40;;;16.30;99.90;;;;;;4099872;29;20266;-92
2022/10/26 03:48:21;;;;;;;10.60;1.80;;;16.30;99.90;;;;;;4100088;29;20179;-92
2022/10/26 03:50:22;;;;;;;7.25;1.85;;;16.30;99.90;;;;;;4084732;28;20175;-93
2022/10/26 03:52:23;;;;;;;5.95;1.63;;;16.30;99.90;;;;;;4084204;29;20207;-93
2022/10/26 03:54:24;;;;;;;10.35;1.63;;;16.40;99.90;;;;;;4084052;29;20215;-91
2022/10/26 03:56:25;;;;;;;6.13;1.52;;;16.30;99.90;;;;;;4100141;29;20187;-93
2022/10/26 03:58:26;;;;;;;4.05;1.48;;;16.30;99.90;;;;;;4084251;29;20192;-92
2022/10/26 04:00:27;;;;;;;8.82;1.20;;;16.50;99.90;;;;;;4100212;29;20262;-92
2022/10/26 04:02:27;;;;;;;13.18;1.40;;;16.60;99.90;;;;;;4084628;29;20205;-94
2022/10/26 04:04:28;;;;;;;3.25;1.20;;;16.40;99.90;;;;;;4086734;29;20184;-92
2022/10/26 04:06:29;;;;;;;6.63;0.95;;;16.50;99.90;;;;;;4089275;29;20171;-92
2022/10/26 04:08:29;;;;;;;5.85;1.02;;;16.50;99.90;;;;;;4093499;29;20215;-93
2022/10/26 04:10:34;;;;;;;4.25;1.17;;;16.50;99.90;;;;;;4094845;29;20199;-94
2022/10/26 04:12:38;;;;;;;3.90;1.10;;;16.60;99.90;;;;;;4095857;28;20195;-92
2022/10/26 04:14:39;;;;;;;5.22;1.08;;;16.50;99.90;;;;;;4095766;29;20230;-92
2022/10/26 04:16:39;;;;;;;2.55;0.85;;;16.60;99.90;;;;;;4110681;29;20174;-92
2022/10/26 04:18:40;;;;;;;3.50;1.08;;;16.70;99.90;;;;;;4099262;29;20252;-93
2022/10/26 04:20:41;;;;;;;8.82;1.17;;;16.50;99.90;;;;;;4113396;28;20203;-91
2022/10/26 04:22:42;;;;;;;6.80;0.98;;;16.60;99.90;;;;;;4092234;29;20274;-92
2022/10/26 04:24:43;;;;;;;3.47;0.70;;;16.70;99.90;;;;;;4112308;29;20183;-92
2022/10/26 04:26:44;;;;;;;9.95;0.93;;;16.70;99.90;;;;;;4096556;29;20187;-93
2022/10/26 04:28:48;;;;;;;3.35;0.88;;;16.70;99.90;;;;;;4108066;29;20171;-93
2022/10/26 04:30:48;;;;;;;5.00;0.90;;;16.70;99.90;;;;;;4099811;29;20183;-91
2022/10/26 04:32:49;;;;;;;7.38;1.33;;;16.70;99.90;;;;;;4113339;29;20198;-93
2022/10/26 04:34:53;;;;;;;6.53;0.90;;;16.80;99.90;;;;;;4086933;29;20227;-93
2022/10/26 04:36:54;;;;;;;7.47;1.00;;;16.80;99.90;;;;;;4087084;29;20236;-93
2022/10/26 04:38:54;;;;;;;7.45;1.10;;;16.70;99.90;;;;;;4086841;29;20180;-92
2022/10/26 04:40:55;;;;;;;4.03;0.70;;;16.80;99.90;;;;;;4086851;29;20688;-94
2022/10/26 04:42:56;;;;;;;4.45;0.90;;;16.80;99.90;;;;;;4102704;29;20174;-91
2022/10/26 04:44:57;;;;;;;2.78;0.80;;;16.90;99.90;;;;;;4086863;29;20182;-93
2022/10/26 04:46:57;;;;;;;3.78;0.90;;;17.00;99.90;;;;;;4102610;28;20191;-91
2022/10/26 04:48:58;;;;;;;4.40;1.00;;;17.00;99.90;;;;;;4086619;28;20214;-93
2022/10/26 04:50:59;;;;;;;5.97;1.05;;;17.00;99.90;;;;;;4086540;29;20175;-91
2022/10/26 04:53:00;;;;;;;2.83;1.13;;;16.80;99.90;;;;;;4086538;29;20171;-93
2022/10/26 04:55:04;;;;;;;4.10;0.82;;;16.90;99.90;;;;;;4086614;29;20207;-92
2022/10/26 04:57:05;;;;;;;5.50;0.93;;;17.00;99.90;;;;;;4087098;29;20267;-91
2022/10/26 04:59:09;;;;;;;2.95;1.08;;;17.10;99.90;;;;;;4102229;29;20171;-94
2022/10/26 05:01:09;;;;;;;3.28;0.90;;;17.20;99.90;;;;;;4086452;28;20195;-93
2022/10/26 05:03:10;;;;;;;4.13;1.08;;;17.10;99.90;;;;;;4086271;28;20186;-93
2022/10/26 05:05:11;;;;;;;4.88;1.30;;;17.20;99.90;;;;;;4086280;29;20175;-94
2022/10/26 05:07:12;;;;;;;7.50;1.20;;;17.10;99.90;;;;;;4086324;29;20171;-91
2022/10/26 05:09:12;;;;;;;5.55;1.08;;;17.00;99.90;;;;;;4086569;29;20222;-93
2022/10/26 05:11:13;;;;;;;5.60;1.52;;;17.00;99.90;;;;;;4086298;29;20196;-93
2022/10/26 05:13:14;;;;;;;4.85;1.10;;;17.20;99.90;;;;;;4086285;29;20799;-92
2022/10/26 05:15:15;;;;;;;3.53;0.80;;;17.20;99.90;;;;;;4102277;29;20289;-92
2022/10/26 05:17:18;;;;;;;8.32;1.00;;;17.30;99.90;;;;;;4086341;29;20188;-93
2022/10/26 05:19:19;;;;;;;3.33;0.90;;;17.50;99.90;;;;;;4101288;28;20179;-93
2022/10/26 05:21:20;;;;;;;4.22;1.20;;;17.40;99.90;;;;;;4086337;28;20195;-93
2022/10/26 05:23:21;;;;;;;6.72;1.30;;;17.30;99.90;;;;;;4086194;29;20600;-91
2022/10/26 05:25:30;;;;;;;5.43;1.40;;;17.30;99.90;;;;;;4102421;28;20187;-95
2022/10/26 05:27:31;;;;;;;6.00;1.02;;;17.30;99.90;;;;;;4086505;29;20255;-92
2022/10/26 05:29:32;;;;;;;4.40;1.38;;;17.40;99.90;;;;;;4102328;28;20179;-93
2022/10/26 05:31:33;;;;;;;3.28;1.00;;;17.30;99.90;;;;;;4085971;29;20534;-92
2022/10/26 05:33:33;;;;;;;3.30;1.00;;;17.10;99.90;;;;;;4102111;28;20183;-92
2022/10/26 05:35:34;;;;;;;5.70;1.13;;;17.00;99.90;;;;;;4086222;29;20172;-92
2022/10/26 05:37:35;;;;;;;3.75;1.20;;;16.80;99.90;;;;;;4102004;29;20182;-92
2022/10/26 05:39:36;;;;;;;6.28;1.20;;;16.70;99.90;;;;;;4101743;29;20175;-92
2022/10/26 05:41:36;;;;;;;8.95;1.10;;;16.70;99.90;;;;;;4085909;29;20207;-91
2022/10/26 05:43:37;;;;;;;4.43;1.20;;;16.70;99.90;;;;;;4085923;29;20688;-92
2022/10/26 05:45:38;;;;;;;2.22;0.90;;;16.60;99.90;;;;;;4085723;29;20188;-92
2022/10/26 05:47:40;;;;;;;2.38;1.00;;;16.40;99.90;;;;;;4101655;28;20190;-92
2022/10/26 05:49:41;;;;;;;5.65;1.20;;;16.40;99.90;;;;;;4085904;29;20167;-92
2022/10/26 05:51:42;;;;;;;6.25;1.55;;;16.30;99.90;;;;;;4085588;29;20690;-93
2022/10/26 05:53:42;;;;;;;6.53;1.38;;;16.50;99.90;;;;;;4085425;29;20200;-92
2022/10/26 05:55:43;;;;;;;4.75;1.42;;;16.60;99.90;;;;;;4085999;29;20239;-92
2022/10/26 05:57:44;;;;;;;6.03;1.02;;;16.70;99.90;;;;;;4101922;29;20636;-92
2022/10/26 05:59:45;;;;;;;6.38;1.77;;;16.60;99.90;;;;;;4101667;29;20262;-92
2022/10/26 06:01:49;;;;;;;11.48;3.58;;;16.70;99.90;;;;;;4085929;29;20199;-93
2022/10/26 06:04:03;;;;;;;17.80;5.00;;;16.60;99.90;;;;;;4085801;29;20219;-93
2022/10/26 06:06:06;;;;;;;10.00;2.97;;;16.60;99.90;;;;;;4085659;29;20191;-91
2022/10/26 06:08:10;;;;;;;8.70;2.25;;;16.50;99.90;;;;;;4085626;29;20656;-93
2022/10/26 06:10:11;;;;;;;6.70;2.20;;;16.30;99.90;;;;;;4085621;29;20180;-91
2022/10/26 06:12:13;;;;;;;9.50;2.17;;;16.10;99.90;;;;;;4085545;29;20740;-92
2022/10/26 06:14:14;;;;;;;9.73;2.13;;;16.20;99.90;;;;;;4085615;29;20289;-92
2022/10/26 06:16:28;;;;;;;5.03;2.40;;;16.40;99.90;;;;;;4085733;29;20178;-93
2022/10/26 06:18:39;;;;;;;11.55;2.70;;;16.40;99.90;;;;;;4085788;29;20175;-91
2022/10/26 06:21:12;;;;;;;5.13;1.80;;;16.30;99.90;;;;;;4085688;29;20267;-91
2022/10/26 06:23:36;;;;;;;4.07;1.30;;;16.10;99.90;;;;;;4085513;29;20179;-91
2022/10/26 06:26:03;;;;;;;5.78;1.00;;;16.00;99.90;;;;;;4085575;29;20167;-92
2022/10/26 06:28:20;;;;;;;5.65;1.33;;;16.00;99.90;;;;;;4085375;29;20283;-94
2022/10/26 06:30:22;;;;;;;4.60;1.10;;;16.10;99.90;;;;;;4085225;29;20207;-92
2022/10/26 06:32:26;;;;;;;7.90;1.80;;;16.10;99.90;;;;;;4101195;28;20206;-94
2022/10/26 06:34:32;;;;;;;11.40;1.60;;;16.00;99.90;;;;;;4085396;29;20215;-94
2022/10/26 06:36:35;;;;;;;4.68;1.52;;;15.90;99.90;;;;;;4101109;29;20226;-96
2022/10/26 06:38:37;;;;;;;6.95;1.60;;;15.90;99.90;;;;;;4085483;29;20179;-94
2022/10/26 06:40:40;;;;;;;4.35;1.20;;;15.90;99.90;;;;;;4085139;29;20180;-94
2022/10/26 06:42:41;;;;;;;5.90;1.58;;;15.90;99.90;;;;;;4085209;29;20203;-93
2022/10/26 06:44:50;;;;;;;9.85;1.70;;;15.90;99.90;;;;;;4084988;29;20175;-92
2022/10/26 06:47:03;;;;;;;8.45;1.65;;;15.90;99.90;;;;;;4084809;29;20268;-93
2022/10/26 06:49:25;;;;;;;8.38;1.58;;;16.00;99.90;;;;;;4085205;29;20167;-93
2022/10/26 06:51:28;;;;;;;11.07;1.40;;;16.00;99.90;;;;;;4084853;29;20227;-92
2022/10/26 06:53:34;;;;;;;7.00;1.20;;;16.10;99.90;;;;;;4084911;29;20172;-92
2022/10/26 06:55:44;;;;;;;6.82;1.50;;;16.10;99.90;;;;;;4084791;29;20194;-93
2022/10/26 06:57:45;;;;;;;6.20;1.50;;;16.10;99.90;;;;;;4084792;29;20264;-91
2022/10/26 06:59:52;;;;;;;8.93;1.60;;;16.10;99.90;;;;;;4100724;29;20734;-92
2022/10/26 07:01:53;;;;;;;5.00;1.33;;;16.20;99.90;;;;;;4084923;28;20195;-94
2022/10/26 07:03:56;;;;;;;6.28;1.52;;;16.30;99.90;;;;;;4100842;28;20211;-92
2022/10/26 07:05:59;;;;;;;8.07;1.42;;;16.30;99.90;;;;;;4084901;29;20179;-92
2022/10/26 07:08:00;;;;;;;6.70;1.10;;;16.10;99.90;;;;;;4100827;28;20178;-91
2022/10/26 07:10:01;;;;;;;7.88;2.10;;;16.10;99.90;;;;;;4100519;29;20179;-93
2022/10/26 07:12:02;;;;;;;6.25;1.63;;;16.00;99.90;;;;;;4084816;29;20230;-92
2022/10/26 07:14:02;;;;;;;9.30;1.75;;;15.90;99.90;;;;;;4084798;29;20294;-91
2022/10/26 07:16:03;;;;;;;7.22;1.73;;;15.90;99.90;;;;;;4084980;29;20624;-91
2022/10/26 07:18:05;;;;;;;5.65;1.65;;;15.90;99.90;;;;;;4100367;28;20233;-92
2022/10/26 07:20:06;;;;;;;10.52;1.40;;;16.00;99.90;;;;;;4084937;29;20184;-93
2022/10/26 07:22:07;;;;;;;10.07;1.55;;;16.10;99.90;;;;;;4100429;29;20230;-92
2022/10/26 07:24:08;;;;;;;9.48;1.52;;;16.20;99.90;;;;;;4084840;29;20171;-92
2022/10/26 07:26:08;;;;;;;6.95;1.85;;;16.20;99.90;;;;;;4100195;29;20187;-92
2022/10/26 07:28:10;;;;;;;5.60;1.42;;;16.20;99.90;;;;;;4100350;29;20202;-91
2022/10/26 07:30:11;;;;;;;6.53;1.48;;;16.40;99.90;;;;;;4084458;29;20180;-92
2022/10/26 07:32:12;;;;;;;6.55;1.42;;;16.40;99.90;;;;;;4084467;29;20195;-91
2022/10/26 07:34:18;;;;;;;10.48;1.48;;;16.60;99.90;;;;;;4084315;29;20227;-92
2022/10/26 07:36:19;;;;;;;7.40;1.88;;;16.50;99.90;;;;;;4084345;29;20172;-92
2022/10/26 07:38:20;;;;;;;7.40;1.50;;;16.50;99.90;;;;;;4084208;29;20190;-94
2022/10/26 07:40:20;;;;;;;6.47;1.70;;;16.60;99.90;;;;;;4100290;29;20226;-93
2022/10/26 07:42:24;;;;;;;5.63;1.52;;;16.70;99.90;;;;;;4083876;29;20199;-93
2022/10/26 07:44:25;;;;;;;6.93;1.50;;;16.90;99.90;;;;;;4084274;29;20215;-93
2022/10/26 07:46:29;;;;;;;7.65;1.40;;;16.90;99.90;;;;;;4084249;29;20215;-94
2022/10/26 07:48:29;;;;;;;9.15;1.77;;;17.10;99.90;;;;;;4084189;29;20191;-94
2022/10/26 07:50:30;;;;;;;2.83;1.20;;;17.50;99.90;;;;;;4100143;29;20183;-93
2022/10/26 07:52:31;;;;;;;7.72;1.50;;;18.00;99.90;;;;;;4084311;29;20191;-93
2022/10/26 07:54:33;;;;;;;10.00;2.08;;;18.70;99.90;;;;;;4084405;29;20294;-91
2022/10/26 07:56:34;;;;;;;10.32;1.60;;;19.20;99.90;;;;;;4100213;28;20171;-93
2022/10/26 07:58:35;;;;;;;13.82;1.50;;;19.80;99.90;;;;;;4084185;29;20168;-93
2022/10/26 08:00:36;;;;;;;6.68;1.42;;;20.40;99.90;;;;;;4084355;29;20183;-92
2022/10/26 08:02:37;;;;;;;4.70;1.30;;;20.70;99.90;;;;;;4100231;29;20281;-94
2022/10/26 08:04:38;;;;;;;6.75;1.58;;;20.50;99.90;;;;;;4100451;28;20257;-93
2022/10/26 08:06:41;;;;;;;5.25;1.40;;;20.70;99.90;;;;;;4084548;29;20180;-92
2022/10/26 08:08:43;;;;;;;5.82;1.67;;;20.90;99.90;;;;;;4084467;29;20184;-92
2022/10/26 08:10:45;;;;;;;4.20;1.38;;;21.40;99.90;;;;;;4100555;29;20683;-92
2022/10/26 08:12:46;;;;;;;4.68;1.30;;;21.60;99.90;;;;;;4084765;29;20215;-92
2022/10/26 08:14:47;;;;;;;4.38;1.27;;;21.60;99.90;;;;;;4100197;29;20214;-93
2022/10/26 08:16:51;;;;;;;9.68;1.33;;;21.60;99.90;;;;;;4084278;29;20720;-95
2022/10/26 08:18:55;;;;;;;5.60;1.27;;;21.60;99.90;;;;;;4084318;29;20176;-95
2022/10/26 08:21:05;;;;;;;6.45;1.50;;;21.60;99.90;;;;;;4084108;29;20696;-95
2022/10/26 08:23:07;;;;;;;6.32;1.40;;;22.20;99.90;;;;;;4084073;29;20278;-93
2022/10/26 08:25:08;;;;;;;2.92;1.10;;;22.40;99.90;;;;;;4083980;29;20171;-93
2022/10/26 08:27:09;;;;;;;6.63;1.20;;;22.40;99.90;;;;;;4099840;29;20183;-93
2022/10/26 08:29:13;;;;;;;5.85;1.50;;;22.20;99.90;;;;;;4099849;29;20183;-95
2022/10/26 08:31:14;;;;;;;4.03;1.00;;;22.80;99.90;;;;;;4084128;29;20196;-92
2022/10/26 08:33:15;;;;;;;5.40;1.58;;;22.70;99.90;;;;;;4100031;29;20266;-94
2022/10/26 08:35:16;;;;;;;7.40;1.42;;;22.80;99.90;;;;;;4099951;28;20226;-94
2022/10/26 08:37:17;;;;;;;5.35;1.50;;;22.70;99.90;;;;;;4083986;29;20164;-93
2022/10/26 08:39:18;;;;;;;6.68;1.20;;;22.50;99.90;;;;;;4084124;29;20214;-93
2022/10/26 08:41:43;;;;;;;7.03;1.40;;;22.60;99.90;;;;;;4083771;29;20202;-93
2022/10/26 08:43:51;;;;;;;4.15;1.27;;;22.40;99.90;;;;;;4099772;28;20282;-94
2022/10/26 08:46:11;;;;;;;8.77;1.42;;;22.20;99.90;;;;;;4099728;29;20603;-93
2022/10/26 08:48:18;;;;;;;5.25;1.15;;;22.20;99.90;;;;;;4100241;28;20226;-93
2022/10/26 08:50:31;;;;;;;5.97;1.35;;;22.00;99.90;;;;;;4099817;28;20211;-93
2022/10/26 08:52:54;;;;;;;7.00;1.35;;;21.60;99.90;;;;;;4099981;28;20233;-94
2022/10/26 08:54:59;;;;;;;6.43;1.65;;;21.30;99.90;;;;;;4102692;28;20277;-92
2022/10/26 08:57:09;;;;;;;5.10;1.20;;;21.00;99.90;;;;;;4102804;28;20277;-92
2022/10/26 08:59:16;;;;;;;6.22;1.38;;;21.10;99.90;;;;;;4102593;28;20229;-92
2022/10/26 09:01:17;;;;;;;4.68;1.23;;;21.00;99.90;;;;;;4086798;28;20199;-93
2022/10/26 09:03:19;;;;;;;65.55;2.83;;;20.80;99.90;;;;;;4087109;29;20234;-93
2022/10/26 10:03:32;;;;;;;10.45;1.77;;;19.00;99.90;;;;;;4247277;27;20572;-92
2022/10/26 10:05:36;;;;;;;7.05;1.50;;;19.00;99.90;;;;;;4212608;28;20217;-94
2022/10/26 10:07:43;;;;;;;5.97;1.25;;;19.20;99.90;;;;;;4212644;28;20233;-92
2022/10/26 10:10:02;;;;;;;7.03;1.05;;;19.30;99.90;;;;;;4212115;28;20262;-92
2022/10/26 10:12:04;;;;;;;5.47;1.20;;;19.40;99.90;;;;;;4217951;28;20195;-92
2022/10/26 10:14:16;;;;;;;9.32;1.80;;;19.50;99.90;;;;;;4195621;28;20171;-93
2022/10/26 10:16:18;;;;;;;7.72;1.25;;;19.40;99.90;;;;;;4195432;28;20224;-92
2022/10/26 10:18:21;;;;;;;4.90;0.90;;;19.60;99.90;;;;;;4195503;28;20234;-93
2022/10/26 10:20:28;;;;;;;8.32;1.65;;;19.70;99.90;;;;;;4212085;28;20305;-93
2022/10/26 10:22:28;;;;;;;9.00;1.70;;;19.80;99.90;;;;;;4194991;28;20210;-94
2022/10/26 10:24:31;;;;;;;4.50;1.40;;;19.80;99.90;;;;;;4195297;28;20178;-91
2022/10/26 10:26:56;;;;;;;3.20;1.13;;;19.90;99.90;;;;;;4195248;28;20175;-91
2022/10/26 10:29:00;;;;;;;4.93;1.23;;;19.90;99.90;;;;;;4194975;28;20228;-94
2022/10/26 10:31:04;;;;;;;5.68;1.42;;;19.90;99.90;;;;;;4195146;28;20214;-93
2022/10/26 10:33:13;;;;;;;6.53;1.38;;;20.00;99.90;;;;;;4195227;28;20339;-91
2022/10/26 10:35:28;;;;;;;4.20;1.20;;;20.00;99.90;;;;;;4195070;28;20196;-93
2022/10/26 10:37:41;;;;;;;8.52;1.45;;;20.20;99.90;;;;;;4194989;28;20179;-90
2022/10/26 10:39:42;;;;;;;3.92;1.33;;;20.30;99.90;;;;;;4194777;28;20194;-91
2022/10/26 10:41:44;;;;;;;7.50;1.42;;;20.30;99.90;;;;;;4194824;28;20194;-92
2022/10/26 10:43:52;;;;;;;4.95;1.33;;;20.40;99.90;;;;;;4195184;28;20646;-93
2022/10/26 10:45:57;;;;;;;3.75;1.10;;;20.20;99.90;;;;;;4195585;28;20308;-95
2022/10/26 10:48:11;;;;;;;8.85;1.30;;;20.30;99.90;;;;;;4211767;28;20633;-92
2022/10/26 10:50:18;;;;;;;7.18;1.15;;;20.30;99.90;;;;;;4195119;28;20209;-92
2022/10/26 10:52:25;;;;;;;5.13;1.20;;;20.40;99.90;;;;;;4199502;28;20222;-91
2022/10/26 10:54:38;;;;;;;14.50;1.13;;;20.60;99.90;;;;;;4197846;28;20171;-94
2022/10/26 10:56:46;;;;;;;6.70;1.30;;;20.60;99.90;;;;;;4196778;28;20175;-91
2022/10/26 10:59:01;;;;;;;6.25;1.40;;;20.60;99.90;;;;;;4194672;28;20206;-92
2022/10/26 11:01:02;;;;;;;6.18;1.20;;;20.30;99.90;;;;;;4209817;22;20222;-94
2022/10/26 11:03:24;;;;;;;6.78;0.98;;;20.30;99.90;;;;;;4211623;28;20174;-90
2022/10/26 11:05:34;;;;;;;3.38;1.10;;;20.20;99.90;;;;;;4195017;28;20179;-95
2022/10/26 11:07:49;;;;;;;7.47;1.30;;;20.00;99.90;;;;;;4194715;28;20178;-96
2022/10/26 11:09:52;;;;;;;5.55;1.23;;;20.00;99.90;;;;;;4194892;28;20709;-96
2022/10/26 11:11:54;;;;;;;3.92;1.00;;;20.10;99.90;;;;;;4194470;28;20288;-92
2022/10/26 11:14:07;;;;;;;6.78;1.33;;;20.20;99.90;;;;;;4172100;28;20704;-96
2022/10/26 11:16:34;;;;;;;10.73;0.93;;;20.50;99.90;;;;;;4168299;28;20211;-94
2022/10/26 11:18:40;;;;;;;11.52;1.13;;;20.50;99.90;;;;;;4167010;28;20254;-94
2022/10/26 11:20:48;;;;;;;7.13;1.30;;;20.50;99.90;;;;;;4183880;28;20644;-94
2022/10/26 11:22:52;;;;;;;6.88;1.55;;;20.50;99.90;;;;;;4183430;28;20226;-91
2022/10/26 11:25:04;;;;;;;4.50;1.10;;;20.50;99.90;;;;;;4167068;28;20187;-94
2022/10/26 11:27:15;;;;;;;6.40;1.23;;;20.60;99.90;;;;;;4183650;28;20517;-92
2022/10/26 11:29:41;;;;;;;10.98;1.10;;;20.60;99.90;;;;;;4184296;28;20207;-89
2022/10/26 11:31:50;;;;;;;8.82;1.40;;;20.60;99.90;;;;;;4166375;28;20234;-91
2022/10/26 11:34:07;;;;;;;7.28;1.38;;;20.60;99.90;;;;;;4183651;28;20171;-94
2022/10/26 11:36:14;;;;;;;7.32;1.05;;;20.70;99.90;;;;;;4199737;28;20167;-90
2022/10/26 11:38:25;;;;;;;7.55;1.00;;;20.80;99.90;;;;;;4183902;28;20175;-95
2022/10/26 11:40:32;;;;;;;7.57;1.10;;;21.00;99.90;;;;;;4167958;28;20239;-95
2022/10/26 11:42:56;;;;;;;3.70;1.13;;;21.10;99.90;;;;;;4200428;28;20220;-94
2022/10/26 11:45:07;;;;;;;9.68;1.50;;;20.80;99.90;;;;;;4183079;28;20171;-94
2022/10/26 11:47:42;;;;;;;7.35;1.17;;;20.70;99.90;;;;;;4183443;28;20199;-94